Time;durP1;ratioP1;P1;durP2;ratioP2;P2;SDS_P1;SDS_P2;PMS_P1;PMS_P2;Temp;Humidity;BMP_temperature;BMP_pressure;BME280_temperature;BME280_humidity;BME280_pressure;Samples;Min_cycle;Max_cycle;Signal;HPM_P1;HPM_P2
2023/06/06 00:00:54;;;;;;;2.97;2.07;;;14.20;99.90;;;;;;5094071;28;20948;-86
2023/06/06 00:03:21;;;;;;;4.20;1.93;;;14.20;99.90;;;;;;5093153;28;20519;-86
2023/06/06 00:05:49;;;;;;;5.50;2.30;;;14.00;99.90;;;;;;5106443;22;20488;-46
2023/06/06 00:08:20;;;;;;;4.80;2.57;;;14.00;99.90;;;;;;5072870;28;20456;-46
2023/06/06 00:10:47;;;;;;;3.37;2.20;;;14.00;99.90;;;;;;5073118;28;20436;-46
2023/06/06 00:13:14;;;;;;;2.80;1.80;;;14.00;99.90;;;;;;5072270;28;20964;-46
2023/06/06 00:15:42;;;;;;;3.60;2.07;;;14.00;99.90;;;;;;5071004;28;20480;-47
2023/06/06 00:18:09;;;;;;;3.07;1.90;;;13.90;99.90;;;;;;5073034;28;20533;-48
2023/06/06 00:20:36;;;;;;;3.60;1.97;;;13.90;99.90;;;;;;5073073;28;20452;-48
2023/06/06 00:23:04;;;;;;;3.30;1.80;;;13.90;99.90;;;;;;5072309;28;20975;-49
2023/06/06 00:25:31;;;;;;;3.40;2.10;;;13.90;99.90;;;;;;5072566;28;20446;-48
2023/06/06 00:27:58;;;;;;;3.43;1.90;;;13.90;99.90;;;;;;5072079;28;20447;-49
2023/06/06 00:30:25;;;;;;;3.37;2.07;;;13.90;99.90;;;;;;5070745;28;20439;-49
2023/06/06 00:32:53;;;;;;;4.00;2.20;;;13.80;99.90;;;;;;5072418;28;20464;-48
2023/06/06 00:35:20;;;;;;;3.90;1.90;;;13.70;99.90;;;;;;5070816;28;20996;-49
2023/06/06 00:37:47;;;;;;;4.17;2.57;;;13.70;99.90;;;;;;5072199;28;20502;-51
2023/06/06 00:40:15;;;;;;;3.90;1.90;;;13.70;99.90;;;;;;5072420;28;20999;-49
2023/06/06 00:42:42;;;;;;;3.50;2.50;;;13.80;99.90;;;;;;5072293;28;20532;-48
2023/06/06 00:45:09;;;;;;;3.50;2.00;;;13.70;99.90;;;;;;5071746;28;20524;-48
2023/06/06 00:47:36;;;;;;;4.50;1.80;;;13.50;99.90;;;;;;5071992;28;20473;-48
2023/06/06 00:50:04;;;;;;;4.13;2.37;;;13.60;99.90;;;;;;5072172;28;21020;-51
2023/06/06 00:52:32;;;;;;;2.67;1.60;;;13.50;99.90;;;;;;5072151;28;20441;-48
2023/06/06 00:54:59;;;;;;;3.67;2.00;;;13.60;99.90;;;;;;5070427;28;20797;-50
2023/06/06 00:57:27;;;;;;;3.73;2.07;;;13.60;99.90;;;;;;5072004;28;20514;-56
2023/06/06 00:59:54;;;;;;;3.60;2.40;;;13.70;99.90;;;;;;5071886;28;20503;-49
2023/06/06 01:02:24;;;;;;;2.80;2.20;;;13.70;99.90;;;;;;5072134;28;20521;-48
2023/06/06 01:04:51;;;;;;;3.17;2.00;;;13.80;99.90;;;;;;5071360;28;20526;-48
2023/06/06 01:07:18;;;;;;;2.83;1.70;;;13.70;99.90;;;;;;5087546;28;20554;-48
2023/06/06 01:09:46;;;;;;;3.67;2.50;;;13.70;99.90;;;;;;5092161;28;20521;-50
2023/06/06 01:12:21;;;;;;;4.30;2.20;;;13.70;99.90;;;;;;5091887;28;20878;-49
2023/06/06 01:14:56;;;;;;;3.63;2.40;;;13.70;99.90;;;;;;5091406;28;20466;-48
2023/06/06 01:17:25;;;;;;;3.00;1.80;;;13.70;99.90;;;;;;5091664;28;20575;-49
2023/06/06 01:19:53;;;;;;;6.00;2.30;;;13.70;99.90;;;;;;5092007;28;20684;-48
2023/06/06 01:22:23;;;;;;;3.17;2.07;;;13.70;99.90;;;;;;5091958;28;20467;-48
2023/06/06 01:24:52;;;;;;;3.83;2.03;;;13.70;99.90;;;;;;5091022;28;20494;-49
2023/06/06 01:27:21;;;;;;;3.30;2.20;;;13.70;99.90;;;;;;5089521;28;20461;-49
2023/06/06 01:29:48;;;;;;;3.00;2.00;;;13.70;99.90;;;;;;5089947;28;20447;-48
2023/06/06 01:32:22;;;;;;;3.80;2.33;;;13.70;99.90;;;;;;5091700;28;20528;-49
2023/06/06 01:34:54;;;;;;;3.77;1.90;;;13.70;99.90;;;;;;5091176;28;20465;-49
2023/06/06 01:37:35;;;;;;;3.10;2.00;;;13.70;99.90;;;;;;5091111;28;20952;-51
2023/06/06 01:40:05;;;;;;;3.03;2.00;;;13.60;99.90;;;;;;5091778;28;20446;-53
2023/06/06 01:42:35;;;;;;;3.70;2.20;;;13.60;99.90;;;;;;5091418;28;20493;-49
2023/06/06 01:45:03;;;;;;;3.23;2.20;;;13.60;99.90;;;;;;5090844;28;20862;-48
2023/06/06 01:47:30;;;;;;;2.93;1.90;;;13.60;99.90;;;;;;5091199;28;20787;-48
2023/06/06 01:49:58;;;;;;;3.60;2.10;;;13.60;99.90;;;;;;5091407;28;20876;-50
2023/06/06 01:52:28;;;;;;;3.93;2.37;;;13.50;99.90;;;;;;5091776;28;20527;-48
2023/06/06 01:54:55;;;;;;;3.03;1.97;;;13.50;99.90;;;;;;5089143;28;20496;-51
2023/06/06 01:57:23;;;;;;;4.17;2.20;;;13.50;99.90;;;;;;5090847;28;20513;-50
2023/06/06 01:59:50;;;;;;;3.50;2.00;;;13.40;99.90;;;;;;5091175;28;20523;-48
2023/06/06 02:02:17;;;;;;;3.50;1.90;;;13.50;99.90;;;;;;5091211;28;20494;-48
2023/06/06 02:04:44;;;;;;;3.63;2.23;;;13.40;99.90;;;;;;5090766;28;20832;-49
2023/06/06 02:07:12;;;;;;;2.70;2.00;;;13.40;99.90;;;;;;5090905;28;20447;-48
2023/06/06 02:09:40;;;;;;;3.20;2.03;;;13.40;99.90;;;;;;5091392;28;20532;-48
2023/06/06 02:12:08;;;;;;;5.37;2.30;;;13.30;99.90;;;;;;5091280;28;20523;-50
2023/06/06 02:14:35;;;;;;;3.00;1.90;;;13.40;99.90;;;;;;5090633;28;20624;-50
2023/06/06 02:17:02;;;;;;;3.47;2.57;;;13.30;99.90;;;;;;5089276;28;20503;-49
2023/06/06 02:19:29;;;;;;;3.30;2.23;;;13.30;99.90;;;;;;5091084;28;20456;-51
2023/06/06 02:21:56;;;;;;;4.77;2.50;;;13.30;99.90;;;;;;5090965;28;20478;-49
2023/06/06 02:24:24;;;;;;;4.03;2.40;;;13.30;99.90;;;;;;5090894;28;20497;-49
2023/06/06 02:26:53;;;;;;;3.90;2.13;;;13.20;99.90;;;;;;5089284;28;20454;-47
2023/06/06 02:29:20;;;;;;;4.07;2.33;;;13.20;99.90;;;;;;5089359;28;20450;-48
2023/06/06 02:31:47;;;;;;;3.20;2.13;;;13.20;99.90;;;;;;5091175;28;20454;-48
2023/06/06 02:34:14;;;;;;;3.80;2.00;;;13.30;99.90;;;;;;5090697;28;20555;-51
2023/06/06 02:36:41;;;;;;;3.23;1.93;;;13.30;99.90;;;;;;5090553;28;20471;-48
2023/06/06 02:39:08;;;;;;;5.57;2.60;;;13.30;99.90;;;;;;5089735;28;20962;-48
2023/06/06 02:41:35;;;;;;;3.67;2.00;;;13.20;99.90;;;;;;5091097;28;20440;-49
2023/06/06 02:44:04;;;;;;;4.17;2.37;;;13.20;99.90;;;;;;5090497;28;20495;-48
2023/06/06 02:46:31;;;;;;;5.00;2.30;;;13.10;99.90;;;;;;5090789;28;20534;-52
2023/06/06 02:48:58;;;;;;;2.97;2.07;;;13.10;99.90;;;;;;5090757;28;20501;-48
2023/06/06 02:51:27;;;;;;;3.77;2.67;;;13.10;99.90;;;;;;5090622;28;20527;-53
2023/06/06 02:53:54;;;;;;;3.70;2.33;;;13.10;99.90;;;;;;5088560;28;20472;-53
2023/06/06 02:56:21;;;;;;;3.13;2.03;;;13.10;99.90;;;;;;5090087;28;20518;-48
2023/06/06 02:58:48;;;;;;;3.60;2.57;;;13.00;99.90;;;;;;5093499;28;20507;-49
2023/06/06 03:01:20;;;;;;;5.47;2.87;;;12.90;99.90;;;;;;5094650;28;20439;-48
2023/06/06 03:03:48;;;;;;;4.07;2.03;;;12.90;99.90;;;;;;5094205;28;20459;-48
2023/06/06 03:06:16;;;;;;;3.80;2.03;;;12.90;99.90;;;;;;5094136;28;20493;-48
2023/06/06 03:08:43;;;;;;;4.30;2.47;;;12.90;99.90;;;;;;5094333;28;20543;-48
2023/06/06 03:11:10;;;;;;;3.17;2.13;;;12.80;99.90;;;;;;5094653;28;20455;-53
2023/06/06 03:13:37;;;;;;;3.97;2.17;;;12.80;99.90;;;;;;5093970;28;20665;-48
2023/06/06 03:16:04;;;;;;;3.23;2.50;;;12.80;99.90;;;;;;5092545;28;20702;-48
2023/06/06 03:18:33;;;;;;;3.13;2.20;;;12.90;99.90;;;;;;5093615;28;20982;-51
2023/06/06 03:21:00;;;;;;;4.07;2.50;;;12.90;99.90;;;;;;5094182;28;20526;-50
2023/06/06 03:23:26;;;;;;;2.77;1.90;;;12.90;99.90;;;;;;5093779;28;20467;-53
2023/06/06 03:25:53;;;;;;;3.20;2.17;;;13.00;99.90;;;;;;5094128;28;20523;-48
2023/06/06 03:28:21;;;;;;;4.27;2.27;;;12.90;99.90;;;;;;5093403;28;20538;-48
2023/06/06 03:30:48;;;;;;;3.87;2.63;;;12.90;99.90;;;;;;5092294;28;20440;-48
2023/06/06 03:33:16;;;;;;;4.13;2.43;;;12.80;99.90;;;;;;5093254;28;20538;-50
2023/06/06 03:35:44;;;;;;;3.90;2.73;;;12.80;99.90;;;;;;5094017;28;20436;-50
2023/06/06 03:38:11;;;;;;;3.50;2.20;;;12.90;99.90;;;;;;5092871;28;20472;-52
2023/06/06 03:40:40;;;;;;;2.93;2.07;;;12.90;99.90;;;;;;5093586;28;20535;-49
2023/06/06 03:43:07;;;;;;;3.27;2.03;;;12.90;99.90;;;;;;5093119;28;20912;-48
2023/06/06 03:45:34;;;;;;;2.97;1.83;;;13.00;99.90;;;;;;5093829;28;20436;-51
2023/06/06 03:48:01;;;;;;;3.40;2.23;;;13.00;99.90;;;;;;5093317;28;20519;-49
2023/06/06 03:50:28;;;;;;;2.80;1.90;;;13.00;99.90;;;;;;5093593;28;20543;-53
2023/06/06 03:52:57;;;;;;;4.00;2.50;;;12.90;99.90;;;;;;5093223;28;20534;-48
2023/06/06 03:55:25;;;;;;;6.80;2.73;;;12.90;99.90;;;;;;5091628;28;20443;-49
2023/06/06 03:57:52;;;;;;;3.60;2.10;;;12.80;99.90;;;;;;5092908;28;20507;-53
2023/06/06 04:00:19;;;;;;;3.00;1.70;;;12.90;99.90;;;;;;5093162;28;20809;-49
2023/06/06 04:02:48;;;;;;;5.37;2.67;;;12.90;99.90;;;;;;5093228;28;20479;-53
2023/06/06 04:05:15;;;;;;;3.27;2.00;;;12.90;99.90;;;;;;5093090;28;20456;-53
2023/06/06 04:07:42;;;;;;;3.90;2.27;;;13.00;99.90;;;;;;5092747;28;20497;-48
2023/06/06 04:10:11;;;;;;;3.07;2.10;;;13.00;99.90;;;;;;5093028;28;20497;-51
2023/06/06 04:12:39;;;;;;;3.90;2.47;;;12.90;99.90;;;;;;5092821;28;20921;-48
2023/06/06 04:15:09;;;;;;;4.00;2.53;;;12.80;99.90;;;;;;5092579;28;20551;-48
2023/06/06 04:17:36;;;;;;;4.37;2.70;;;12.70;99.90;;;;;;5090907;28;20985;-48
2023/06/06 04:20:05;;;;;;;3.00;2.20;;;12.80;99.90;;;;;;5093096;28;20547;-48
2023/06/06 04:22:32;;;;;;;3.23;2.07;;;12.80;99.90;;;;;;5093222;28;20451;-48
2023/06/06 04:24:59;;;;;;;5.30;2.40;;;12.80;99.90;;;;;;5092250;28;20499;-50
2023/06/06 04:27:28;;;;;;;3.53;2.20;;;12.80;99.90;;;;;;5090394;28;20990;-49
2023/06/06 04:29:57;;;;;;;4.50;2.70;;;12.80;99.90;;;;;;5090936;28;21000;-48
2023/06/06 04:32:25;;;;;;;3.80;2.90;;;12.80;99.90;;;;;;5092650;28;20448;-49
2023/06/06 04:34:52;;;;;;;3.70;2.27;;;12.90;99.90;;;;;;5092289;28;20471;-48
2023/06/06 04:37:20;;;;;;;4.60;2.80;;;12.90;99.90;;;;;;5091948;28;20568;-49
2023/06/06 04:39:52;;;;;;;4.00;2.70;;;12.90;99.90;;;;;;5092688;28;20444;-49
2023/06/06 04:42:20;;;;;;;4.00;2.33;;;12.90;99.90;;;;;;5092396;28;20957;-49
2023/06/06 04:44:49;;;;;;;3.57;2.50;;;12.90;99.90;;;;;;5092087;28;20452;-49
2023/06/06 04:47:19;;;;;;;3.40;2.50;;;12.90;99.90;;;;;;5092213;28;20481;-48
2023/06/06 04:49:46;;;;;;;4.00;2.70;;;13.00;99.90;;;;;;5092018;28;20446;-49
2023/06/06 04:52:14;;;;;;;3.20;2.60;;;13.10;99.90;;;;;;5092194;28;20443;-49
2023/06/06 04:54:41;;;;;;;3.73;2.57;;;13.20;99.90;;;;;;5090226;28;20463;-52
2023/06/06 04:57:15;;;;;;;4.73;2.30;;;13.10;99.90;;;;;;5091645;28;20986;-48
2023/06/06 04:59:50;;;;;;;4.03;3.00;;;13.10;99.90;;;;;;5092021;28;20439;-49
2023/06/06 05:02:20;;;;;;;4.50;2.50;;;13.20;99.90;;;;;;5088835;28;20448;-51
2023/06/06 05:04:48;;;;;;;4.13;3.07;;;13.20;99.90;;;;;;5079941;28;21011;-51
2023/06/06 05:07:15;;;;;;;5.50;3.07;;;13.20;99.90;;;;;;5076260;28;20476;-48
2023/06/06 05:09:42;;;;;;;4.53;2.80;;;13.30;99.90;;;;;;5071278;28;20481;-51
2023/06/06 05:12:09;;;;;;;3.60;2.50;;;13.40;99.90;;;;;;5081651;28;20979;-49
2023/06/06 05:14:36;;;;;;;4.17;3.00;;;13.40;99.90;;;;;;5075401;28;20496;-49
2023/06/06 05:17:04;;;;;;;4.00;3.17;;;13.50;99.90;;;;;;5069789;28;20468;-49
2023/06/06 05:19:32;;;;;;;4.93;3.10;;;13.50;99.90;;;;;;5071461;28;20522;-51
2023/06/06 05:21:59;;;;;;;3.53;2.43;;;13.50;99.90;;;;;;5078384;28;20498;-48
2023/06/06 05:24:26;;;;;;;3.63;2.70;;;13.40;99.90;;;;;;5079812;28;20463;-48
2023/06/06 05:26:53;;;;;;;4.23;2.93;;;13.40;99.90;;;;;;5081628;28;20432;-49
2023/06/06 05:29:20;;;;;;;3.67;2.40;;;13.40;99.90;;;;;;5079835;28;20440;-48
2023/06/06 05:31:47;;;;;;;4.43;2.73;;;13.50;99.90;;;;;;5074255;28;20448;-52
2023/06/06 05:34:14;;;;;;;5.47;2.93;;;13.50;99.90;;;;;;5071075;28;20493;-48
2023/06/06 05:36:42;;;;;;;4.50;3.20;;;13.60;99.90;;;;;;5071010;28;20495;-48
2023/06/06 05:39:10;;;;;;;4.60;3.30;;;13.70;99.90;;;;;;5071319;28;20520;-53
2023/06/06 05:41:37;;;;;;;4.73;3.10;;;13.70;99.90;;;;;;5071148;28;20535;-48
2023/06/06 05:44:04;;;;;;;4.97;3.37;;;13.70;99.90;;;;;;5073620;28;20893;-48
2023/06/06 05:46:31;;;;;;;5.30;2.33;;;13.70;99.90;;;;;;5081667;28;20471;-48
2023/06/06 05:48:58;;;;;;;6.20;3.13;;;13.80;99.90;;;;;;5080611;28;20520;-50
2023/06/06 05:51:26;;;;;;;3.53;3.10;;;13.80;99.90;;;;;;5080277;28;20868;-50
2023/06/06 05:53:54;;;;;;;4.63;3.10;;;13.90;99.90;;;;;;5068835;28;20514;-51
2023/06/06 05:56:21;;;;;;;5.37;3.07;;;13.90;99.90;;;;;;5070079;28;20445;-54
2023/06/06 05:58:49;;;;;;;5.40;3.30;;;13.90;99.90;;;;;;5070778;28;20484;-52
2023/06/06 06:01:17;;;;;;;3.90;2.73;;;13.90;99.90;;;;;;5070860;28;20448;-53
2023/06/06 06:03:44;;;;;;;4.23;3.00;;;13.90;99.90;;;;;;5070088;28;20465;-48
2023/06/06 06:06:11;;;;;;;4.63;3.23;;;13.90;99.90;;;;;;5069145;28;20457;-47
2023/06/06 06:08:38;;;;;;;4.00;3.17;;;13.90;99.90;;;;;;5070949;28;20501;-49
2023/06/06 06:11:07;;;;;;;4.00;3.10;;;13.80;99.90;;;;;;5070971;28;20539;-47
2023/06/06 06:13:36;;;;;;;3.73;2.63;;;13.90;99.90;;;;;;5069796;28;20751;-47
2023/06/06 06:16:03;;;;;;;4.10;3.07;;;13.80;99.90;;;;;;5066452;28;21079;-47
2023/06/06 06:18:30;;;;;;;3.90;2.90;;;13.80;99.90;;;;;;5102070;22;20492;-80
2023/06/06 06:20:57;;;;;;;4.23;2.50;;;13.80;99.90;;;;;;5093433;28;20447;-81
2023/06/06 06:23:25;;;;;;;4.17;2.90;;;13.80;99.90;;;;;;5093292;28;20479;-81
2023/06/06 06:25:52;;;;;;;4.80;3.30;;;13.70;99.90;;;;;;5087458;28;20485;-81
2023/06/06 06:28:21;;;;;;;5.77;3.73;;;13.70;99.90;;;;;;5095364;28;20483;-81
2023/06/06 06:30:48;;;;;;;4.70;3.67;;;13.50;99.90;;;;;;5094147;28;20476;-81
2023/06/06 06:33:15;;;;;;;5.53;3.33;;;13.40;99.90;;;;;;5108730;22;20437;-46
2023/06/06 06:35:42;;;;;;;4.83;3.60;;;13.40;99.90;;;;;;5135500;27;20528;-47
2023/06/06 06:38:09;;;;;;;5.93;3.40;;;13.40;99.90;;;;;;5127044;27;20473;-49
2023/06/06 06:40:36;;;;;;;4.00;3.10;;;13.50;99.90;;;;;;5136037;27;20444;-48
2023/06/06 06:43:03;;;;;;;3.60;2.40;;;13.50;99.90;;;;;;5132159;27;20533;-45
2023/06/06 06:45:32;;;;;;;4.63;3.23;;;13.60;99.90;;;;;;5125355;27;20859;-51
2023/06/06 06:48:01;;;;;;;3.87;2.87;;;13.80;99.90;;;;;;5142508;22;20574;-92
2023/06/06 06:50:28;;;;;;;5.10;3.00;;;13.90;99.90;;;;;;5094116;28;20497;-91
2023/06/06 06:52:55;;;;;;;4.07;2.93;;;14.00;99.90;;;;;;5091885;28;20475;-91
2023/06/06 06:55:23;;;;;;;5.40;2.73;;;14.00;99.90;;;;;;5075943;28;20476;-92
2023/06/06 06:57:51;;;;;;;3.33;2.50;;;14.20;99.90;;;;;;5083800;28;20474;-91
2023/06/06 07:00:22;;;;;;;3.40;2.43;;;14.20;99.90;;;;;;5096056;22;20946;-49
2023/06/06 07:02:53;;;;;;;4.00;2.80;;;14.10;99.90;;;;;;5077368;28;20962;-49
2023/06/06 07:05:21;;;;;;;3.37;2.27;;;14.10;99.90;;;;;;5076683;28;20536;-49
2023/06/06 07:07:52;;;;;;;3.47;2.57;;;14.00;99.90;;;;;;5075435;28;20456;-49
2023/06/06 07:10:20;;;;;;;3.10;2.33;;;14.10;99.90;;;;;;5072036;28;20859;-54
2023/06/06 07:12:48;;;;;;;4.60;2.57;;;14.30;99.90;;;;;;5072308;28;20531;-49
2023/06/06 07:15:15;;;;;;;4.30;2.50;;;14.30;99.90;;;;;;5073548;28;20452;-49
2023/06/06 07:17:46;;;;;;;5.10;3.10;;;14.40;99.90;;;;;;5080469;28;20581;-49
2023/06/06 07:20:14;;;;;;;7.40;4.40;;;14.50;99.90;;;;;;5074177;28;21021;-50
2023/06/06 07:22:41;;;;;;;5.70;4.23;;;14.60;99.90;;;;;;5065832;28;20440;-49
2023/06/06 07:25:09;;;;;;;3.93;2.90;;;14.60;99.90;;;;;;5072847;28;20820;-49
2023/06/06 07:27:37;;;;;;;3.70;2.60;;;14.70;99.90;;;;;;5073535;28;20468;-51
2023/06/06 07:30:11;;;;;;;3.87;3.03;;;14.80;99.90;;;;;;5072211;28;20597;-52
2023/06/06 07:32:41;;;;;;;25.70;15.67;;;15.00;99.90;;;;;;5072047;28;20442;-52
2023/06/06 07:35:08;;;;;;;3.27;2.73;;;15.10;99.90;;;;;;5073157;28;20481;-49
2023/06/06 07:37:37;;;;;;;4.13;2.57;;;15.20;99.90;;;;;;5073178;28;20511;-52
2023/06/06 07:40:05;;;;;;;3.77;2.43;;;15.30;99.90;;;;;;5079431;28;20539;-49
2023/06/06 07:42:32;;;;;;;3.13;2.50;;;15.40;99.90;;;;;;5073928;28;20460;-49
2023/06/06 07:44:59;;;;;;;4.23;2.70;;;15.40;99.90;;;;;;5070852;28;20445;-51
2023/06/06 07:47:26;;;;;;;5.50;3.07;;;15.40;99.90;;;;;;5072909;28;20517;-50
2023/06/06 07:49:53;;;;;;;3.87;2.60;;;15.40;99.90;;;;;;5073426;28;20478;-49
2023/06/06 07:52:20;;;;;;;5.43;2.73;;;15.50;99.90;;;;;;5073183;28;20759;-50
2023/06/06 07:54:48;;;;;;;4.00;3.03;;;15.60;99.90;;;;;;5070915;28;20444;-49
2023/06/06 07:57:16;;;;;;;4.80;2.57;;;15.70;99.90;;;;;;5077718;28;20500;-49
2023/06/06 07:59:45;;;;;;;3.87;2.80;;;15.80;99.90;;;;;;5065025;28;20853;-49
2023/06/06 08:02:14;;;;;;;4.03;2.30;;;15.90;99.90;;;;;;5072860;28;20444;-49
2023/06/06 08:04:45;;;;;;;3.53;2.20;;;16.00;99.90;;;;;;5073177;28;20441;-50
2023/06/06 08:07:13;;;;;;;3.70;2.77;;;16.20;99.90;;;;;;5072101;28;21038;-49
2023/06/06 08:09:40;;;;;;;3.97;2.60;;;16.30;99.90;;;;;;5080423;28;20440;-49
2023/06/06 08:12:09;;;;;;;4.87;3.37;;;16.40;99.90;;;;;;5072839;28;20519;-50
2023/06/06 08:14:36;;;;;;;6.07;4.00;;;16.50;99.90;;;;;;5072356;28;20480;-49
2023/06/06 08:17:04;;;;;;;5.73;3.00;;;16.60;99.90;;;;;;5072328;28;20862;-49
2023/06/06 08:19:31;;;;;;;4.53;2.67;;;16.70;99.90;;;;;;5072869;28;20512;-49
2023/06/06 08:21:58;;;;;;;4.23;3.03;;;16.60;99.90;;;;;;5072893;28;20439;-49
2023/06/06 08:24:25;;;;;;;5.73;3.40;;;16.50;99.90;;;;;;5070395;28;21019;-51
2023/06/06 08:26:53;;;;;;;4.17;2.67;;;16.60;99.90;;;;;;5072203;28;20888;-49
2023/06/06 08:29:21;;;;;;;3.90;2.50;;;16.70;99.90;;;;;;5070845;28;20888;-49
2023/06/06 08:31:48;;;;;;;4.93;2.80;;;16.70;99.90;;;;;;5072694;28;20525;-49
2023/06/06 08:34:15;;;;;;;3.93;2.63;;;16.80;99.90;;;;;;5071960;28;20806;-49
2023/06/06 08:36:42;;;;;;;4.03;2.33;;;17.00;99.90;;;;;;5072025;28;20484;-51
2023/06/06 08:39:09;;;;;;;4.30;2.53;;;17.00;99.90;;;;;;5072204;28;21061;-49
2023/06/06 08:41:36;;;;;;;5.03;3.40;;;17.00;99.90;;;;;;5070514;28;20508;-49
2023/06/06 08:44:03;;;;;;;5.33;2.83;;;17.10;99.90;;;;;;5072153;28;20444;-49
2023/06/06 08:46:34;;;;;;;4.97;2.83;;;17.10;99.90;;;;;;5072301;28;20539;-49
2023/06/06 08:49:04;;;;;;;4.00;3.30;;;17.20;99.90;;;;;;5072585;28;20966;-49
2023/06/06 08:51:31;;;;;;;4.53;3.00;;;17.30;99.90;;;;;;5072357;28;20439;-52
2023/06/06 08:54:00;;;;;;;3.50;2.13;;;17.50;99.90;;;;;;5070169;28;20451;-54
2023/06/06 08:56:28;;;;;;;4.57;1.93;;;17.60;99.90;;;;;;5070869;28;20450;-49
2023/06/06 08:58:55;;;;;;;3.30;2.10;;;17.80;99.90;;;;;;5075726;28;20574;-49
2023/06/06 09:01:23;;;;;;;4.27;2.83;;;18.00;99.90;;;;;;5071776;28;20467;-47
2023/06/06 09:03:53;;;;;;;4.00;2.80;;;18.00;99.90;;;;;;5072687;28;21000;-47
2023/06/06 09:06:21;;;;;;;3.73;2.73;;;18.00;99.90;;;;;;5073105;28;20459;-47
2023/06/06 09:08:49;;;;;;;4.40;2.83;;;18.10;99.90;;;;;;5070778;28;21060;-47
2023/06/06 09:11:17;;;;;;;4.30;3.67;;;18.20;99.90;;;;;;5072904;28;20444;-47
2023/06/06 09:13:45;;;;;;;3.77;2.70;;;18.30;99.90;;;;;;5074914;28;20829;-47
2023/06/06 09:16:14;;;;;;;3.27;2.43;;;18.40;99.90;;;;;;5073012;28;20539;-47
2023/06/06 09:18:41;;;;;;;3.20;2.17;;;18.50;99.90;;;;;;5071135;28;20971;-47
2023/06/06 09:21:10;;;;;;;4.03;2.33;;;18.60;99.90;;;;;;5071389;28;20442;-48
2023/06/06 09:23:37;;;;;;;3.63;2.33;;;18.60;99.90;;;;;;5070974;28;20544;-48
2023/06/06 09:26:04;;;;;;;4.30;2.60;;;18.80;99.90;;;;;;5073992;28;20524;-47
2023/06/06 09:28:38;;;;;;;3.40;2.17;;;18.90;99.90;;;;;;5070732;28;20465;-47
2023/06/06 09:31:25;;;;;;;5.70;2.90;;;19.00;99.90;;;;;;5069457;28;20449;-47
2023/06/06 09:33:53;;;;;;;4.57;2.97;;;19.00;99.90;;;;;;5070938;28;20437;-48
2023/06/06 09:36:27;;;;;;;6.10;2.80;;;18.90;99.90;;;;;;5071126;28;20456;-51
2023/06/06 09:38:55;;;;;;;3.40;2.50;;;19.00;99.90;;;;;;5051152;28;20982;-48
2023/06/06 09:41:22;;;;;;;4.00;2.83;;;19.10;99.90;;;;;;5049617;28;20500;-47
2023/06/06 09:43:49;;;;;;;4.50;2.90;;;19.20;99.90;;;;;;5051142;28;20444;-49
2023/06/06 09:46:17;;;;;;;4.90;3.03;;;19.30;99.90;;;;;;5051283;28;20538;-48
2023/06/06 09:48:53;;;;;;;4.67;3.47;;;19.20;99.90;;;;;;5050968;28;20494;-48
2023/06/06 09:51:20;;;;;;;5.30;3.77;;;19.20;99.90;;;;;;5050822;28;20440;-49
2023/06/06 09:53:51;;;;;;;4.63;3.30;;;19.20;99.90;;;;;;5049875;28;20542;-48
2023/06/06 09:56:21;;;;;;;4.50;3.10;;;19.20;99.90;;;;;;5050953;28;20454;-47
2023/06/06 09:58:53;;;;;;;4.60;2.70;;;19.30;99.90;;;;;;5051129;28;20571;-48
2023/06/06 10:01:23;;;;;;;4.13;3.00;;;19.40;99.90;;;;;;5051126;28;20503;-48
2023/06/06 10:03:51;;;;;;;5.00;2.83;;;19.50;99.90;;;;;;5050633;28;20547;-48
2023/06/06 10:06:18;;;;;;;3.63;2.33;;;19.60;99.90;;;;;;5050592;28;20453;-49
2023/06/06 10:08:49;;;;;;;4.40;2.73;;;19.70;99.90;;;;;;5059073;28;20488;-47
2023/06/06 10:11:20;;;;;;;4.07;2.30;;;19.80;99.90;;;;;;5071083;28;20477;-47
2023/06/06 10:13:47;;;;;;;3.80;2.30;;;19.90;99.90;;;;;;5070314;28;20482;-50
2023/06/06 10:16:15;;;;;;;4.03;2.33;;;19.90;99.90;;;;;;5069808;28;20534;-47
2023/06/06 10:18:45;;;;;;;3.83;2.50;;;20.10;99.90;;;;;;5068363;28;20481;-47
2023/06/06 10:21:14;;;;;;;4.07;2.77;;;20.10;99.90;;;;;;5071031;28;20473;-47
2023/06/06 10:23:41;;;;;;;4.67;3.00;;;20.20;99.90;;;;;;5070470;28;20539;-52
2023/06/06 10:26:16;;;;;;;4.50;3.30;;;20.20;99.90;;;;;;5070795;28;20447;-47
2023/06/06 10:28:50;;;;;;;3.00;2.30;;;20.10;99.90;;;;;;5070271;28;20831;-48
2023/06/06 10:31:27;;;;;;;4.50;3.30;;;20.00;99.90;;;;;;5069748;28;20558;-48
2023/06/06 10:33:56;;;;;;;4.20;3.20;;;20.00;99.90;;;;;;5068127;28;20449;-48
2023/06/06 10:36:24;;;;;;;4.13;2.90;;;20.00;99.90;;;;;;5068998;28;20552;-51
2023/06/06 10:39:16;;;;;;;7.83;3.10;;;20.00;99.90;;;;;;5069173;28;20572;-47
2023/06/06 10:41:50;;;;;;;6.40;4.87;;;19.90;99.90;;;;;;5067690;28;20942;-47
2023/06/06 10:44:21;;;;;;;4.67;3.63;;;19.90;99.90;;;;;;5069395;28;20534;-49
2023/06/06 10:46:50;;;;;;;4.83;2.97;;;19.90;99.90;;;;;;5066114;28;20950;-50
2023/06/06 10:49:19;;;;;;;5.93;3.47;;;20.00;99.90;;;;;;5070559;28;20834;-48
2023/06/06 10:51:48;;;;;;;3.83;2.90;;;20.00;99.90;;;;;;5068545;28;20803;-48
2023/06/06 10:54:16;;;;;;;3.73;2.80;;;20.00;99.90;;;;;;5068038;28;20538;-47
2023/06/06 10:56:51;;;;;;;3.97;3.50;;;20.10;99.90;;;;;;5069855;28;20474;-49
2023/06/06 10:59:22;;;;;;;5.67;3.07;;;20.30;99.90;;;;;;5073615;28;20475;-47
2023/06/06 11:01:49;;;;;;;4.50;3.20;;;20.40;99.90;;;;;;5069119;28;20559;-54
2023/06/06 11:04:20;;;;;;;5.03;4.40;;;20.50;99.90;;;;;;5069577;28;20530;-48
2023/06/06 11:06:49;;;;;;;4.97;3.33;;;20.60;99.90;;;;;;5067367;28;20553;-53
2023/06/06 11:09:22;;;;;;;6.10;3.73;;;20.70;99.90;;;;;;5068883;28;20546;-48
2023/06/06 11:11:51;;;;;;;4.40;3.27;;;20.80;99.90;;;;;;5068979;28;21003;-48
2023/06/06 11:14:24;;;;;;;3.60;2.80;;;20.80;99.90;;;;;;5067553;28;20459;-50
2023/06/06 11:17:01;;;;;;;5.00;3.73;;;20.90;99.90;;;;;;5068278;28;20464;-50
2023/06/06 11:19:38;;;;;;;4.20;3.50;;;21.00;99.90;;;;;;5075452;28;20486;-52
2023/06/06 11:22:06;;;;;;;4.80;3.57;;;21.00;99.90;;;;;;5073352;28;20443;-47
2023/06/06 11:24:35;;;;;;;5.53;4.13;;;21.00;99.90;;;;;;5073105;28;20448;-49
2023/06/06 11:27:06;;;;;;;5.30;4.03;;;21.00;99.90;;;;;;5070306;28;20515;-48
2023/06/06 11:29:34;;;;;;;4.93;4.33;;;21.00;99.90;;;;;;5071202;28;20466;-48
2023/06/06 11:32:01;;;;;;;4.17;3.40;;;21.10;99.90;;;;;;5073005;28;20956;-48
2023/06/06 11:34:27;;;;;;;4.20;3.37;;;21.10;99.90;;;;;;5073131;28;21653;-47
2023/06/06 11:36:56;;;;;;;4.10;2.93;;;21.10;99.90;;;;;;5069919;28;20472;-51
2023/06/06 11:39:28;;;;;;;6.20;3.60;;;21.00;99.90;;;;;;5078689;28;20476;-50
2023/06/06 11:41:56;;;;;;;4.30;3.87;;;21.00;99.90;;;;;;5063165;28;20973;-50
2023/06/06 11:44:33;;;;;;;4.53;3.47;;;21.20;99.90;;;;;;5073115;28;20453;-47
2023/06/06 11:47:02;;;;;;;6.60;3.77;;;21.30;99.90;;;;;;5072862;28;20454;-48
2023/06/06 11:49:30;;;;;;;4.70;4.00;;;21.40;99.90;;;;;;5069747;28;20444;-52
2023/06/06 11:51:58;;;;;;;5.80;3.80;;;21.40;99.90;;;;;;5065040;28;20441;-50
2023/06/06 11:54:27;;;;;;;3.70;2.90;;;21.50;99.90;;;;;;5069119;28;21153;-52
2023/06/06 11:56:57;;;;;;;4.33;2.97;;;21.60;99.90;;;;;;5072234;28;20456;-47
2023/06/06 11:59:26;;;;;;;4.20;3.00;;;21.80;99.90;;;;;;5073820;28;20480;-51
2023/06/06 12:01:54;;;;;;;4.37;3.37;;;21.80;99.90;;;;;;5071755;28;20981;-48
2023/06/06 12:04:22;;;;;;;4.30;3.47;;;21.80;99.90;;;;;;5072277;28;20465;-47
2023/06/06 12:06:50;;;;;;;4.70;3.33;;;21.70;99.90;;;;;;5070858;28;20437;-49
2023/06/06 12:09:19;;;;;;;4.23;2.97;;;21.80;99.90;;;;;;5076467;28;20457;-47
2023/06/06 12:11:53;;;;;;;4.70;3.60;;;21.90;99.90;;;;;;5078199;28;20510;-47
2023/06/06 12:14:22;;;;;;;3.67;3.23;;;22.00;99.90;;;;;;5072440;28;20524;-50
2023/06/06 12:16:50;;;;;;;6.43;3.90;;;22.00;99.90;;;;;;5072262;28;20490;-51
2023/06/06 12:19:18;;;;;;;4.53;3.27;;;21.90;99.90;;;;;;5071339;28;20564;-48
2023/06/06 12:21:51;;;;;;;4.60;3.30;;;21.80;99.90;;;;;;5071069;28;20490;-49
2023/06/06 12:24:20;;;;;;;6.03;4.03;;;21.70;99.90;;;;;;5070919;28;20455;-49
2023/06/06 12:26:53;;;;;;;4.30;2.87;;;21.80;99.90;;;;;;5075947;28;20478;-50
2023/06/06 12:29:20;;;;;;;4.30;2.90;;;21.80;99.90;;;;;;5072050;28;20444;-47
2023/06/06 12:31:50;;;;;;;4.40;3.70;;;21.70;99.90;;;;;;5070535;28;20527;-52
2023/06/06 12:34:18;;;;;;;4.57;3.60;;;21.70;99.90;;;;;;5071660;28;21620;-50
2023/06/06 12:36:45;;;;;;;3.87;3.27;;;21.60;99.90;;;;;;5073301;28;20524;-49
2023/06/06 12:39:14;;;;;;;3.90;3.30;;;21.60;99.90;;;;;;5078643;28;20491;-50
2023/06/06 12:41:42;;;;;;;4.17;3.10;;;21.50;99.90;;;;;;5075752;28;20856;-47
2023/06/06 12:44:11;;;;;;;4.80;3.17;;;21.40;99.90;;;;;;5071479;28;20469;-49
2023/06/06 12:46:39;;;;;;;4.33;3.13;;;21.40;99.90;;;;;;5071408;28;20478;-47
2023/06/06 12:49:08;;;;;;;5.00;3.47;;;21.30;99.90;;;;;;5072062;28;20515;-49
2023/06/06 12:51:35;;;;;;;6.07;3.17;;;21.30;99.90;;;;;;5071800;28;20527;-49
2023/06/06 12:54:03;;;;;;;5.73;3.47;;;21.30;99.90;;;;;;5069311;28;20448;-52